Terminal Aerodrome Forecast
Issued by NWS

Home | Current Version | Previous Version | Text Only | Print | Product List | Glossary Off
Versions: 1 2 3 4 5 6 7 8 9 10 11 12 13 14 15 16 17 18 19 20 21 22 23 24 25 26 27 28

000
FTUS43 KTOP 182320
TAFFOE
TAF
KFOE 182320Z 1900/1924 18009KT P6SM SCT100
     FM190500 17005KT 4SM BR BKN015 OVC050
     FM191000 16004KT 2SM BR BKN003
     FM191600 15006KT 6SM BR BKN003=

USA.gov is the U.S. government's official web portal to all federal, state and local government web resources and services.